sensor_id;sensor_type;location;lat;lon;timestamp;P1;durP1;ratioP1;P2;durP2;ratioP2
2305;SDS011;1161;51.922;8.896;2023-04-06T00:02:12;16.60;;;9.63;;
2305;SDS011;1161;51.922;8.896;2023-04-06T00:04:38;17.02;;;10.02;;
2305;SDS011;1161;51.922;8.896;2023-04-06T00:07:05;22.30;;;9.88;;
2305;SDS011;1161;51.922;8.896;2023-04-06T00:09:32;14.18;;;9.57;;
2305;SDS011;1161;51.922;8.896;2023-04-06T00:11:58;12.25;;;9.00;;
2305;SDS011;1161;51.922;8.896;2023-04-06T00:14:26;13.52;;;9.02;;
2305;SDS011;1161;51.922;8.896;2023-04-06T00:16:53;16.17;;;10.90;;
2305;SDS011;1161;51.922;8.896;2023-04-06T00:19:20;15.27;;;10.57;;
2305;SDS011;1161;51.922;8.896;2023-04-06T00:21:46;12.02;;;9.30;;
2305;SDS011;1161;51.922;8.896;2023-04-06T00:24:13;12.95;;;10.00;;
2305;SDS011;1161;51.922;8.896;2023-04-06T00:26:40;19.40;;;11.50;;
2305;SDS011;1161;51.922;8.896;2023-04-06T00:29:07;20.40;;;13.05;;
2305;SDS011;1161;51.922;8.896;2023-04-06T00:31:35;22.60;;;12.20;;
2305;SDS011;1161;51.922;8.896;2023-04-06T00:34:02;13.20;;;10.40;;
2305;SDS011;1161;51.922;8.896;2023-04-06T00:36:28;17.13;;;11.23;;
2305;SDS011;1161;51.922;8.896;2023-04-06T00:38:55;25.27;;;13.05;;
2305;SDS011;1161;51.922;8.896;2023-04-06T00:41:21;16.15;;;11.55;;
2305;SDS011;1161;51.922;8.896;2023-04-06T00:43:48;24.17;;;12.70;;
2305;SDS011;1161;51.922;8.896;2023-04-06T00:46:14;20.08;;;12.18;;
2305;SDS011;1161;51.922;8.896;2023-04-06T00:48:42;15.43;;;11.73;;
2305;SDS011;1161;51.922;8.896;2023-04-06T00:51:09;20.73;;;11.05;;
2305;SDS011;1161;51.922;8.896;2023-04-06T00:53:35;18.75;;;10.45;;
2305;SDS011;1161;51.922;8.896;2023-04-06T00:56:02;14.57;;;10.90;;
2305;SDS011;1161;51.922;8.896;2023-04-06T00:58:29;18.67;;;10.55;;
2305;SDS011;1161;51.922;8.896;2023-04-06T01:00:55;20.45;;;10.90;;
2305;SDS011;1161;51.922;8.896;2023-04-06T01:03:22;21.67;;;9.82;;
2305;SDS011;1161;51.922;8.896;2023-04-06T01:05:50;13.20;;;10.50;;
2305;SDS011;1161;51.922;8.896;2023-04-06T01:08:20;22.42;;;10.43;;
2305;SDS011;1161;51.922;8.896;2023-04-06T01:10:47;16.27;;;11.68;;
2305;SDS011;1161;51.922;8.896;2023-04-06T01:13:14;13.38;;;11.23;;
2305;SDS011;1161;51.922;8.896;2023-04-06T01:15:40;24.25;;;12.18;;
2305;SDS011;1161;51.922;8.896;2023-04-06T01:18:08;24.40;;;12.15;;
2305;SDS011;1161;51.922;8.896;2023-04-06T01:20:35;19.45;;;10.20;;
2305;SDS011;1161;51.922;8.896;2023-04-06T01:23:03;13.82;;;9.88;;
2305;SDS011;1161;51.922;8.896;2023-04-06T01:25:29;15.55;;;10.05;;
2305;SDS011;1161;51.922;8.896;2023-04-06T01:27:56;14.85;;;9.40;;
2305;SDS011;1161;51.922;8.896;2023-04-06T01:30:22;13.73;;;9.90;;
2305;SDS011;1161;51.922;8.896;2023-04-06T01:32:49;21.08;;;10.13;;
2305;SDS011;1161;51.922;8.896;2023-04-06T01:35:17;16.92;;;9.10;;
2305;SDS011;1161;51.922;8.896;2023-04-06T01:37:44;15.85;;;11.85;;
2305;SDS011;1161;51.922;8.896;2023-04-06T01:40:12;20.15;;;10.57;;
2305;SDS011;1161;51.922;8.896;2023-04-06T01:42:39;14.57;;;10.75;;
2305;SDS011;1161;51.922;8.896;2023-04-06T01:45:06;15.93;;;9.55;;
2305;SDS011;1161;51.922;8.896;2023-04-06T01:47:33;14.88;;;11.00;;
2305;SDS011;1161;51.922;8.896;2023-04-06T01:50:00;15.82;;;10.85;;
2305;SDS011;1161;51.922;8.896;2023-04-06T01:52:27;16.15;;;10.80;;
2305;SDS011;1161;51.922;8.896;2023-04-06T01:54:54;18.75;;;10.13;;
2305;SDS011;1161;51.922;8.896;2023-04-06T01:57:22;13.90;;;11.48;;
2305;SDS011;1161;51.922;8.896;2023-04-06T01:59:50;19.48;;;11.77;;
2305;SDS011;1161;51.922;8.896;2023-04-06T02:02:17;23.38;;;11.27;;
2305;SDS011;1161;51.922;8.896;2023-04-06T02:04:43;18.45;;;11.93;;
2305;SDS011;1161;51.922;8.896;2023-04-06T02:07:10;18.65;;;12.35;;
2305;SDS011;1161;51.922;8.896;2023-04-06T02:09:36;19.50;;;11.98;;
2305;SDS011;1161;51.922;8.896;2023-04-06T02:12:03;23.80;;;12.45;;
2305;SDS011;1161;51.922;8.896;2023-04-06T02:14:31;22.08;;;11.82;;
2305;SDS011;1161;51.922;8.896;2023-04-06T02:16:59;15.25;;;11.70;;
2305;SDS011;1161;51.922;8.896;2023-04-06T02:19:25;13.10;;;10.13;;
2305;SDS011;1161;51.922;8.896;2023-04-06T02:21:52;21.10;;;10.02;;
2305;SDS011;1161;51.922;8.896;2023-04-06T02:24:19;23.15;;;12.00;;
2305;SDS011;1161;51.922;8.896;2023-04-06T02:26:45;17.60;;;10.90;;
2305;SDS011;1161;51.922;8.896;2023-04-06T02:29:12;27.95;;;11.88;;
2305;SDS011;1161;51.922;8.896;2023-04-06T02:31:39;19.33;;;12.45;;
2305;SDS011;1161;51.922;8.896;2023-04-06T02:34:06;23.20;;;12.13;;
2305;SDS011;1161;51.922;8.896;2023-04-06T02:36:36;21.33;;;12.80;;
2305;SDS011;1161;51.922;8.896;2023-04-06T02:39:03;33.58;;;15.00;;
2305;SDS011;1161;51.922;8.896;2023-04-06T02:41:29;27.20;;;14.27;;
2305;SDS011;1161;51.922;8.896;2023-04-06T02:43:56;22.38;;;14.05;;
2305;SDS011;1161;51.922;8.896;2023-04-06T02:46:23;17.45;;;11.77;;
2305;SDS011;1161;51.922;8.896;2023-04-06T02:48:51;21.83;;;12.55;;
2305;SDS011;1161;51.922;8.896;2023-04-06T02:51:18;31.33;;;14.55;;
2305;SDS011;1161;51.922;8.896;2023-04-06T02:53:44;22.02;;;12.02;;
2305;SDS011;1161;51.922;8.896;2023-04-06T02:56:12;22.52;;;12.98;;
2305;SDS011;1161;51.922;8.896;2023-04-06T02:58:38;22.50;;;13.30;;
2305;SDS011;1161;51.922;8.896;2023-04-06T03:01:06;29.73;;;14.48;;
2305;SDS011;1161;51.922;8.896;2023-04-06T03:03:32;16.27;;;12.63;;
2305;SDS011;1161;51.922;8.896;2023-04-06T03:06:02;23.58;;;15.55;;
2305;SDS011;1161;51.922;8.896;2023-04-06T03:08:29;24.65;;;15.32;;
2305;SDS011;1161;51.922;8.896;2023-04-06T03:10:55;24.70;;;14.27;;
2305;SDS011;1161;51.922;8.896;2023-04-06T03:13:24;29.30;;;15.80;;
2305;SDS011;1161;51.922;8.896;2023-04-06T03:15:53;23.65;;;14.55;;
2305;SDS011;1161;51.922;8.896;2023-04-06T03:18:21;20.80;;;13.40;;
2305;SDS011;1161;51.922;8.896;2023-04-06T03:20:48;17.73;;;13.13;;
2305;SDS011;1161;51.922;8.896;2023-04-06T03:23:16;30.40;;;15.55;;
2305;SDS011;1161;51.922;8.896;2023-04-06T03:25:46;25.58;;;15.77;;
2305;SDS011;1161;51.922;8.896;2023-04-06T03:28:14;27.95;;;15.75;;
2305;SDS011;1161;51.922;8.896;2023-04-06T03:30:42;26.55;;;17.30;;
2305;SDS011;1161;51.922;8.896;2023-04-06T03:33:09;28.73;;;17.27;;
2305;SDS011;1161;51.922;8.896;2023-04-06T03:35:36;22.30;;;16.27;;
2305;SDS011;1161;51.922;8.896;2023-04-06T03:38:05;20.45;;;15.05;;
2305;SDS011;1161;51.922;8.896;2023-04-06T03:40:33;30.38;;;16.55;;
2305;SDS011;1161;51.922;8.896;2023-04-06T03:43:00;29.63;;;15.10;;
2305;SDS011;1161;51.922;8.896;2023-04-06T03:45:28;26.92;;;15.32;;
2305;SDS011;1161;51.922;8.896;2023-04-06T03:47:55;25.38;;;15.85;;
2305;SDS011;1161;51.922;8.896;2023-04-06T03:50:22;21.65;;;15.38;;
2305;SDS011;1161;51.922;8.896;2023-04-06T03:52:50;37.70;;;17.75;;
2305;SDS011;1161;51.922;8.896;2023-04-06T03:55:18;33.42;;;16.83;;
2305;SDS011;1161;51.922;8.896;2023-04-06T03:57:48;35.72;;;19.30;;
2305;SDS011;1161;51.922;8.896;2023-04-06T04:00:15;30.30;;;17.35;;
2305;SDS011;1161;51.922;8.896;2023-04-06T04:02:42;22.75;;;16.05;;
2305;SDS011;1161;51.922;8.896;2023-04-06T04:05:09;28.33;;;16.42;;
2305;SDS011;1161;51.922;8.896;2023-04-06T04:07:37;25.80;;;18.40;;
2305;SDS011;1161;51.922;8.896;2023-04-06T04:10:06;26.55;;;18.10;;
2305;SDS011;1161;51.922;8.896;2023-04-06T04:12:35;25.05;;;15.77;;
2305;SDS011;1161;51.922;8.896;2023-04-06T04:15:03;21.95;;;16.02;;
2305;SDS011;1161;51.922;8.896;2023-04-06T04:17:31;30.98;;;15.55;;
2305;SDS011;1161;51.922;8.896;2023-04-06T04:19:58;22.98;;;16.00;;
2305;SDS011;1161;51.922;8.896;2023-04-06T04:22:26;19.92;;;14.63;;
2305;SDS011;1161;51.922;8.896;2023-04-06T04:24:54;30.00;;;15.10;;
2305;SDS011;1161;51.922;8.896;2023-04-06T04:27:24;30.48;;;17.38;;
2305;SDS011;1161;51.922;8.896;2023-04-06T04:29:51;28.45;;;18.73;;
2305;SDS011;1161;51.922;8.896;2023-04-06T04:32:19;35.83;;;17.42;;
2305;SDS011;1161;51.922;8.896;2023-04-06T04:34:46;29.65;;;16.33;;
2305;SDS011;1161;51.922;8.896;2023-04-06T04:37:14;38.30;;;17.55;;
2305;SDS011;1161;51.922;8.896;2023-04-06T04:39:46;25.58;;;16.15;;
2305;SDS011;1161;51.922;8.896;2023-04-06T04:42:15;27.58;;;17.30;;
2305;SDS011;1161;51.922;8.896;2023-04-06T04:44:44;24.13;;;17.35;;
2305;SDS011;1161;51.922;8.896;2023-04-06T04:47:11;18.17;;;15.13;;
2305;SDS011;1161;51.922;8.896;2023-04-06T04:49:39;25.33;;;16.88;;
2305;SDS011;1161;51.922;8.896;2023-04-06T04:52:06;28.30;;;15.60;;
2305;SDS011;1161;51.922;8.896;2023-04-06T04:54:35;29.02;;;14.43;;
2305;SDS011;1161;51.922;8.896;2023-04-06T04:57:03;34.63;;;16.40;;
2305;SDS011;1161;51.922;8.896;2023-04-06T04:59:30;31.02;;;16.02;;
2305;SDS011;1161;51.922;8.896;2023-04-06T05:01:57;23.35;;;14.13;;
2305;SDS011;1161;51.922;8.896;2023-04-06T05:04:24;23.40;;;13.00;;
2305;SDS011;1161;51.922;8.896;2023-04-06T05:07:02;24.23;;;15.18;;
2305;SDS011;1161;51.922;8.896;2023-04-06T05:09:30;25.95;;;15.98;;
2305;SDS011;1161;51.922;8.896;2023-04-06T05:12:00;29.88;;;15.75;;
2305;SDS011;1161;51.922;8.896;2023-04-06T05:14:27;35.08;;;18.30;;
2305;SDS011;1161;51.922;8.896;2023-04-06T05:16:55;32.45;;;17.67;;
2305;SDS011;1161;51.922;8.896;2023-04-06T05:19:22;31.17;;;16.88;;
2305;SDS011;1161;51.922;8.896;2023-04-06T05:21:50;23.75;;;14.15;;
2305;SDS011;1161;51.922;8.896;2023-04-06T05:24:18;31.65;;;16.17;;
2305;SDS011;1161;51.922;8.896;2023-04-06T05:26:44;25.65;;;15.02;;
2305;SDS011;1161;51.922;8.896;2023-04-06T05:29:12;25.58;;;16.10;;
2305;SDS011;1161;51.922;8.896;2023-04-06T05:31:39;30.00;;;17.48;;
2305;SDS011;1161;51.922;8.896;2023-04-06T05:34:09;27.80;;;15.73;;
2305;SDS011;1161;51.922;8.896;2023-04-06T05:36:38;38.67;;;17.73;;
2305;SDS011;1161;51.922;8.896;2023-04-06T05:39:07;30.73;;;18.58;;
2305;SDS011;1161;51.922;8.896;2023-04-06T05:41:35;33.95;;;17.63;;
2305;SDS011;1161;51.922;8.896;2023-04-06T05:44:02;30.00;;;16.15;;
2305;SDS011;1161;51.922;8.896;2023-04-06T05:46:30;31.27;;;17.50;;
2305;SDS011;1161;51.922;8.896;2023-04-06T05:48:58;26.33;;;15.75;;
2305;SDS011;1161;51.922;8.896;2023-04-06T05:51:25;43.70;;;17.00;;
2305;SDS011;1161;51.922;8.896;2023-04-06T05:53:53;27.27;;;17.33;;
2305;SDS011;1161;51.922;8.896;2023-04-06T05:56:21;31.60;;;18.05;;
2305;SDS011;1161;51.922;8.896;2023-04-06T05:58:50;27.23;;;17.30;;
2305;SDS011;1161;51.922;8.896;2023-04-06T06:01:17;33.20;;;18.25;;
2305;SDS011;1161;51.922;8.896;2023-04-06T06:03:47;26.45;;;17.92;;
2305;SDS011;1161;51.922;8.896;2023-04-06T06:06:15;30.50;;;19.65;;
2305;SDS011;1161;51.922;8.896;2023-04-06T06:08:42;37.50;;;19.05;;
2305;SDS011;1161;51.922;8.896;2023-04-06T06:11:10;35.20;;;21.15;;
2305;SDS011;1161;51.922;8.896;2023-04-06T06:13:39;29.15;;;21.02;;
2305;SDS011;1161;51.922;8.896;2023-04-06T06:16:07;44.92;;;21.45;;
2305;SDS011;1161;51.922;8.896;2023-04-06T06:18:34;33.53;;;19.25;;
2305;SDS011;1161;51.922;8.896;2023-04-06T06:21:03;22.67;;;15.80;;
2305;SDS011;1161;51.922;8.896;2023-04-06T06:23:30;25.10;;;17.53;;
2305;SDS011;1161;51.922;8.896;2023-04-06T06:25:58;29.70;;;17.33;;
2305;SDS011;1161;51.922;8.896;2023-04-06T06:28:26;34.83;;;18.87;;
2305;SDS011;1161;51.922;8.896;2023-04-06T06:30:54;23.43;;;15.43;;
2305;SDS011;1161;51.922;8.896;2023-04-06T06:33:25;26.87;;;15.90;;
2305;SDS011;1161;51.922;8.896;2023-04-06T06:35:52;19.37;;;13.93;;
2305;SDS011;1161;51.922;8.896;2023-04-06T06:38:19;27.40;;;14.07;;
2305;SDS011;1161;51.922;8.896;2023-04-06T06:40:47;30.87;;;15.70;;
2305;SDS011;1161;51.922;8.896;2023-04-06T06:43:17;26.30;;;15.40;;
2305;SDS011;1161;51.922;8.896;2023-04-06T06:45:46;23.20;;;14.23;;
2305;SDS011;1161;51.922;8.896;2023-04-06T06:48:13;19.67;;;14.43;;
2305;SDS011;1161;51.922;8.896;2023-04-06T06:50:41;24.57;;;12.63;;
2305;SDS011;1161;51.922;8.896;2023-04-06T06:53:23;22.17;;;13.23;;
2305;SDS011;1161;51.922;8.896;2023-04-06T06:55:51;23.63;;;15.20;;
2305;SDS011;1161;51.922;8.896;2023-04-06T06:58:18;20.23;;;12.17;;
2305;SDS011;1161;51.922;8.896;2023-04-06T07:00:47;20.33;;;12.53;;
2305;SDS011;1161;51.922;8.896;2023-04-06T07:03:15;28.73;;;13.73;;
2305;SDS011;1161;51.922;8.896;2023-04-06T07:05:48;19.40;;;10.90;;
2305;SDS011;1161;51.922;8.896;2023-04-06T07:08:18;20.53;;;11.70;;
2305;SDS011;1161;51.922;8.896;2023-04-06T07:10:45;22.37;;;13.77;;
2305;SDS011;1161;51.922;8.896;2023-04-06T07:13:13;23.20;;;14.90;;
2305;SDS011;1161;51.922;8.896;2023-04-06T07:15:47;27.27;;;14.30;;
2305;SDS011;1161;51.922;8.896;2023-04-06T07:18:14;17.63;;;12.33;;
2305;SDS011;1161;51.922;8.896;2023-04-06T07:20:41;19.10;;;13.30;;
2305;SDS011;1161;51.922;8.896;2023-04-06T07:23:08;25.87;;;14.13;;
2305;SDS011;1161;51.922;8.896;2023-04-06T07:25:35;18.83;;;11.10;;
2305;SDS011;1161;51.922;8.896;2023-04-06T07:28:02;18.00;;;12.20;;
2305;SDS011;1161;51.922;8.896;2023-04-06T07:30:29;23.60;;;13.60;;
2305;SDS011;1161;51.922;8.896;2023-04-06T07:32:55;14.40;;;10.47;;
2305;SDS011;1161;51.922;8.896;2023-04-06T07:35:22;17.33;;;11.57;;
2305;SDS011;1161;51.922;8.896;2023-04-06T07:37:49;21.87;;;12.60;;
2305;SDS011;1161;51.922;8.896;2023-04-06T07:40:17;17.00;;;11.33;;
2305;SDS011;1161;51.922;8.896;2023-04-06T07:42:44;16.67;;;10.47;;
2305;SDS011;1161;51.922;8.896;2023-04-06T07:45:11;24.83;;;11.53;;
2305;SDS011;1161;51.922;8.896;2023-04-06T07:47:38;20.30;;;12.33;;
2305;SDS011;1161;51.922;8.896;2023-04-06T07:50:05;19.87;;;10.90;;
2305;SDS011;1161;51.922;8.896;2023-04-06T07:52:32;15.37;;;10.73;;
2305;SDS011;1161;51.922;8.896;2023-04-06T07:54:58;17.27;;;12.17;;
2305;SDS011;1161;51.922;8.896;2023-04-06T07:57:26;22.80;;;11.57;;
2305;SDS011;1161;51.922;8.896;2023-04-06T07:59:53;15.53;;;11.97;;
2305;SDS011;1161;51.922;8.896;2023-04-06T08:02:19;13.13;;;11.00;;
2305;SDS011;1161;51.922;8.896;2023-04-06T08:04:46;19.17;;;10.60;;
2305;SDS011;1161;51.922;8.896;2023-04-06T08:07:12;16.23;;;11.23;;
2305;SDS011;1161;51.922;8.896;2023-04-06T08:09:39;21.40;;;10.70;;
2305;SDS011;1161;51.922;8.896;2023-04-06T08:12:06;16.23;;;11.10;;
2305;SDS011;1161;51.922;8.896;2023-04-06T08:14:34;11.80;;;10.30;;
2305;SDS011;1161;51.922;8.896;2023-04-06T08:17:01;17.00;;;11.30;;
2305;SDS011;1161;51.922;8.896;2023-04-06T08:19:27;20.07;;;11.37;;
2305;SDS011;1161;51.922;8.896;2023-04-06T08:21:54;15.10;;;11.77;;
2305;SDS011;1161;51.922;8.896;2023-04-06T08:24:20;15.23;;;9.27;;
2305;SDS011;1161;51.922;8.896;2023-04-06T08:26:47;24.40;;;10.27;;
2305;SDS011;1161;51.922;8.896;2023-04-06T08:29:13;13.83;;;9.73;;
2305;SDS011;1161;51.922;8.896;2023-04-06T08:31:42;19.50;;;11.70;;
2305;SDS011;1161;51.922;8.896;2023-04-06T08:34:10;16.93;;;10.57;;
2305;SDS011;1161;51.922;8.896;2023-04-06T08:36:37;21.20;;;10.23;;
2305;SDS011;1161;51.922;8.896;2023-04-06T08:39:04;16.37;;;10.07;;
2305;SDS011;1161;51.922;8.896;2023-04-06T08:41:30;18.10;;;10.70;;
2305;SDS011;1161;51.922;8.896;2023-04-06T08:43:58;15.43;;;10.93;;
2305;SDS011;1161;51.922;8.896;2023-04-06T08:46:25;18.57;;;11.13;;
2305;SDS011;1161;51.922;8.896;2023-04-06T08:48:56;18.10;;;12.13;;
2305;SDS011;1161;51.922;8.896;2023-04-06T08:51:23;15.57;;;10.80;;
2305;SDS011;1161;51.922;8.896;2023-04-06T08:53:51;14.23;;;10.80;;
2305;SDS011;1161;51.922;8.896;2023-04-06T08:56:19;19.13;;;11.20;;
2305;SDS011;1161;51.922;8.896;2023-04-06T08:58:47;11.87;;;10.03;;
2305;SDS011;1161;51.922;8.896;2023-04-06T09:01:14;21.07;;;11.30;;
2305;SDS011;1161;51.922;8.896;2023-04-06T09:03:44;15.80;;;10.47;;
2305;SDS011;1161;51.922;8.896;2023-04-06T09:06:12;16.43;;;11.73;;
2305;SDS011;1161;51.922;8.896;2023-04-06T09:08:39;15.20;;;11.80;;
2305;SDS011;1161;51.922;8.896;2023-04-06T09:11:06;13.60;;;10.13;;
2305;SDS011;1161;51.922;8.896;2023-04-06T09:13:44;16.93;;;11.30;;
2305;SDS011;1161;51.922;8.896;2023-04-06T09:16:11;14.93;;;10.90;;
2305;SDS011;1161;51.922;8.896;2023-04-06T09:18:37;14.50;;;11.63;;
2305;SDS011;1161;51.922;8.896;2023-04-06T09:21:05;17.40;;;11.10;;
2305;SDS011;1161;51.922;8.896;2023-04-06T09:23:34;19.13;;;11.57;;
2305;SDS011;1161;51.922;8.896;2023-04-06T09:26:07;17.83;;;10.73;;
2305;SDS011;1161;51.922;8.896;2023-04-06T09:28:45;18.20;;;10.87;;
2305;SDS011;1161;51.922;8.896;2023-04-06T09:31:14;15.67;;;10.87;;
2305;SDS011;1161;51.922;8.896;2023-04-06T09:33:41;18.60;;;10.87;;
2305;SDS011;1161;51.922;8.896;2023-04-06T09:36:11;19.93;;;10.70;;
2305;SDS011;1161;51.922;8.896;2023-04-06T09:38:51;20.40;;;9.70;;
2305;SDS011;1161;51.922;8.896;2023-04-06T09:41:23;20.50;;;11.43;;
2305;SDS011;1161;51.922;8.896;2023-04-06T09:43:50;16.40;;;10.40;;
2305;SDS011;1161;51.922;8.896;2023-04-06T09:46:17;20.07;;;10.40;;
2305;SDS011;1161;51.922;8.896;2023-04-06T09:48:48;21.70;;;10.77;;
2305;SDS011;1161;51.922;8.896;2023-04-06T09:51:16;24.00;;;11.83;;
2305;SDS011;1161;51.922;8.896;2023-04-06T09:53:46;16.90;;;9.67;;
2305;SDS011;1161;51.922;8.896;2023-04-06T09:56:20;18.30;;;10.23;;
2305;SDS011;1161;51.922;8.896;2023-04-06T09:58:49;16.93;;;10.87;;
2305;SDS011;1161;51.922;8.896;2023-04-06T10:01:17;20.73;;;9.87;;
2305;SDS011;1161;51.922;8.896;2023-04-06T10:03:45;15.40;;;11.30;;
2305;SDS011;1161;51.922;8.896;2023-04-06T10:06:13;14.57;;;10.87;;
2305;SDS011;1161;51.922;8.896;2023-04-06T10:08:41;17.73;;;11.33;;
2305;SDS011;1161;51.922;8.896;2023-04-06T10:11:10;17.03;;;10.80;;
2305;SDS011;1161;51.922;8.896;2023-04-06T10:13:37;16.83;;;10.57;;
2305;SDS011;1161;51.922;8.896;2023-04-06T10:16:04;16.83;;;10.57;;
2305;SDS011;1161;51.922;8.896;2023-04-06T10:18:31;17.13;;;12.60;;
2305;SDS011;1161;51.922;8.896;2023-04-06T10:21:00;19.80;;;11.33;;
2305;SDS011;1161;51.922;8.896;2023-04-06T10:23:29;18.20;;;11.83;;
2305;SDS011;1161;51.922;8.896;2023-04-06T10:25:58;18.43;;;11.50;;
2305;SDS011;1161;51.922;8.896;2023-04-06T10:28:30;21.07;;;11.70;;
2305;SDS011;1161;51.922;8.896;2023-04-06T10:30:57;24.80;;;12.50;;
2305;SDS011;1161;51.922;8.896;2023-04-06T10:33:26;17.27;;;11.60;;
2305;SDS011;1161;51.922;8.896;2023-04-06T10:35:53;18.50;;;11.43;;
2305;SDS011;1161;51.922;8.896;2023-04-06T10:38:21;20.27;;;12.13;;
2305;SDS011;1161;51.922;8.896;2023-04-06T10:41:03;19.70;;;11.50;;
2305;SDS011;1161;51.922;8.896;2023-04-06T10:43:32;18.97;;;11.47;;
2305;SDS011;1161;51.922;8.896;2023-04-06T10:46:00;14.63;;;11.33;;
2305;SDS011;1161;51.922;8.896;2023-04-06T10:48:36;21.10;;;12.57;;
2305;SDS011;1161;51.922;8.896;2023-04-06T10:51:06;20.53;;;12.67;;
2305;SDS011;1161;51.922;8.896;2023-04-06T10:53:34;23.70;;;12.60;;
2305;SDS011;1161;51.922;8.896;2023-04-06T10:56:00;20.93;;;12.90;;
2305;SDS011;1161;51.922;8.896;2023-04-06T10:58:28;20.53;;;10.87;;
2305;SDS011;1161;51.922;8.896;2023-04-06T11:00:57;24.50;;;13.40;;
2305;SDS011;1161;51.922;8.896;2023-04-06T11:03:24;16.07;;;11.83;;
2305;SDS011;1161;51.922;8.896;2023-04-06T11:05:52;16.83;;;11.30;;
2305;SDS011;1161;51.922;8.896;2023-04-06T11:08:22;19.20;;;11.87;;
2305;SDS011;1161;51.922;8.896;2023-04-06T11:10:49;18.10;;;11.40;;
2305;SDS011;1161;51.922;8.896;2023-04-06T11:13:16;22.50;;;12.00;;
2305;SDS011;1161;51.922;8.896;2023-04-06T11:15:43;26.03;;;12.00;;
2305;SDS011;1161;51.922;8.896;2023-04-06T11:18:11;24.70;;;13.60;;
2305;SDS011;1161;51.922;8.896;2023-04-06T11:20:37;23.13;;;12.13;;
2305;SDS011;1161;51.922;8.896;2023-04-06T11:23:04;29.57;;;13.60;;
2305;SDS011;1161;51.922;8.896;2023-04-06T11:25:31;14.70;;;11.20;;
2305;SDS011;1161;51.922;8.896;2023-04-06T11:27:58;21.37;;;13.13;;
2305;SDS011;1161;51.922;8.896;2023-04-06T11:30:24;19.40;;;12.30;;
2305;SDS011;1161;51.922;8.896;2023-04-06T11:32:51;21.20;;;11.67;;
2305;SDS011;1161;51.922;8.896;2023-04-06T11:35:22;18.67;;;9.87;;
2305;SDS011;1161;51.922;8.896;2023-04-06T11:37:49;16.87;;;10.87;;
2305;SDS011;1161;51.922;8.896;2023-04-06T11:40:20;17.97;;;11.23;;
2305;SDS011;1161;51.922;8.896;2023-04-06T11:42:51;18.20;;;10.83;;
2305;SDS011;1161;51.922;8.896;2023-04-06T11:45:18;18.73;;;11.70;;
2305;SDS011;1161;51.922;8.896;2023-04-06T11:47:44;18.73;;;10.40;;
2305;SDS011;1161;51.922;8.896;2023-04-06T11:50:12;20.97;;;12.30;;
2305;SDS011;1161;51.922;8.896;2023-04-06T11:52:41;17.90;;;11.87;;
2305;SDS011;1161;51.922;8.896;2023-04-06T11:55:11;27.23;;;12.10;;
2305;SDS011;1161;51.922;8.896;2023-04-06T11:57:39;23.50;;;13.77;;
2305;SDS011;1161;51.922;8.896;2023-04-06T12:00:06;18.47;;;11.80;;
2305;SDS011;1161;51.922;8.896;2023-04-06T12:02:33;31.13;;;13.53;;
2305;SDS011;1161;51.922;8.896;2023-04-06T12:05:01;20.30;;;13.00;;
2305;SDS011;1161;51.922;8.896;2023-04-06T12:07:28;16.07;;;11.27;;
2305;SDS011;1161;51.922;8.896;2023-04-06T12:09:55;28.00;;;12.00;;
2305;SDS011;1161;51.922;8.896;2023-04-06T12:12:22;30.10;;;12.23;;
2305;SDS011;1161;51.922;8.896;2023-04-06T12:14:49;32.43;;;13.80;;
2305;SDS011;1161;51.922;8.896;2023-04-06T12:17:15;31.90;;;17.17;;
2305;SDS011;1161;51.922;8.896;2023-04-06T12:19:42;22.43;;;12.67;;
2305;SDS011;1161;51.922;8.896;2023-04-06T12:22:08;25.30;;;14.30;;
2305;SDS011;1161;51.922;8.896;2023-04-06T12:24:35;25.90;;;12.73;;
2305;SDS011;1161;51.922;8.896;2023-04-06T12:27:02;26.17;;;13.53;;
2305;SDS011;1161;51.922;8.896;2023-04-06T12:29:29;23.63;;;13.00;;
2305;SDS011;1161;51.922;8.896;2023-04-06T12:31:56;25.70;;;13.53;;
2305;SDS011;1161;51.922;8.896;2023-04-06T12:34:22;23.47;;;13.53;;
2305;SDS011;1161;51.922;8.896;2023-04-06T12:36:49;23.93;;;14.17;;
2305;SDS011;1161;51.922;8.896;2023-04-06T12:39:15;26.80;;;14.40;;
2305;SDS011;1161;51.922;8.896;2023-04-06T12:41:42;28.90;;;14.43;;
2305;SDS011;1161;51.922;8.896;2023-04-06T12:44:10;29.43;;;14.17;;
2305;SDS011;1161;51.922;8.896;2023-04-06T12:46:37;24.57;;;13.47;;
2305;SDS011;1161;51.922;8.896;2023-04-06T12:49:03;28.93;;;13.80;;
2305;SDS011;1161;51.922;8.896;2023-04-06T12:51:30;31.00;;;14.23;;
2305;SDS011;1161;51.922;8.896;2023-04-06T12:53:57;18.87;;;12.37;;
2305;SDS011;1161;51.922;8.896;2023-04-06T12:56:24;30.43;;;14.90;;
2305;SDS011;1161;51.922;8.896;2023-04-06T12:58:51;27.77;;;14.63;;
2305;SDS011;1161;51.922;8.896;2023-04-06T13:01:21;31.33;;;14.70;;
2305;SDS011;1161;51.922;8.896;2023-04-06T13:03:47;31.33;;;15.40;;
2305;SDS011;1161;51.922;8.896;2023-04-06T13:06:14;24.53;;;14.53;;
2305;SDS011;1161;51.922;8.896;2023-04-06T13:08:41;35.77;;;16.20;;
2305;SDS011;1161;51.922;8.896;2023-04-06T13:11:07;28.97;;;14.50;;
2305;SDS011;1161;51.922;8.896;2023-04-06T13:13:35;27.57;;;15.90;;
2305;SDS011;1161;51.922;8.896;2023-04-06T13:16:02;20.70;;;13.03;;
2305;SDS011;1161;51.922;8.896;2023-04-06T13:18:32;24.90;;;13.53;;
2305;SDS011;1161;51.922;8.896;2023-04-06T13:21:00;29.87;;;13.80;;
2305;SDS011;1161;51.922;8.896;2023-04-06T13:23:26;27.90;;;14.67;;
2305;SDS011;1161;51.922;8.896;2023-04-06T13:25:57;29.20;;;14.90;;
2305;SDS011;1161;51.922;8.896;2023-04-06T13:28:25;31.80;;;14.50;;
2305;SDS011;1161;51.922;8.896;2023-04-06T13:30:53;25.83;;;14.67;;
2305;SDS011;1161;51.922;8.896;2023-04-06T13:33:20;31.20;;;13.83;;
2305;SDS011;1161;51.922;8.896;2023-04-06T13:35:48;25.17;;;13.27;;
2305;SDS011;1161;51.922;8.896;2023-04-06T13:38:14;30.20;;;14.80;;
2305;SDS011;1161;51.922;8.896;2023-04-06T13:40:41;22.33;;;13.37;;
2305;SDS011;1161;51.922;8.896;2023-04-06T13:43:08;28.97;;;13.77;;
2305;SDS011;1161;51.922;8.896;2023-04-06T13:45:35;24.17;;;13.20;;
2305;SDS011;1161;51.922;8.896;2023-04-06T13:48:01;25.53;;;14.77;;
2305;SDS011;1161;51.922;8.896;2023-04-06T13:50:28;25.40;;;14.50;;
2305;SDS011;1161;51.922;8.896;2023-04-06T13:52:56;23.83;;;12.60;;
2305;SDS011;1161;51.922;8.896;2023-04-06T13:55:23;32.10;;;14.10;;
2305;SDS011;1161;51.922;8.896;2023-04-06T13:57:51;26.27;;;15.57;;
2305;SDS011;1161;51.922;8.896;2023-04-06T14:00:18;25.10;;;13.37;;
2305;SDS011;1161;51.922;8.896;2023-04-06T14:02:44;24.47;;;13.47;;
2305;SDS011;1161;51.922;8.896;2023-04-06T14:05:11;27.27;;;14.27;;
2305;SDS011;1161;51.922;8.896;2023-04-06T14:07:38;22.03;;;13.03;;
2305;SDS011;1161;51.922;8.896;2023-04-06T14:10:07;24.50;;;12.37;;
2305;SDS011;1161;51.922;8.896;2023-04-06T14:12:38;21.97;;;11.73;;
2305;SDS011;1161;51.922;8.896;2023-04-06T14:15:06;20.93;;;11.13;;
2305;SDS011;1161;51.922;8.896;2023-04-06T14:17:34;21.07;;;11.53;;
2305;SDS011;1161;51.922;8.896;2023-04-06T14:20:01;24.10;;;12.67;;
2305;SDS011;1161;51.922;8.896;2023-04-06T14:22:28;21.53;;;12.47;;
2305;SDS011;1161;51.922;8.896;2023-04-06T14:24:55;21.07;;;13.30;;
2305;SDS011;1161;51.922;8.896;2023-04-06T14:27:23;25.90;;;13.07;;
2305;SDS011;1161;51.922;8.896;2023-04-06T14:29:50;37.20;;;13.07;;
2305;SDS011;1161;51.922;8.896;2023-04-06T14:32:18;28.37;;;12.73;;
2305;SDS011;1161;51.922;8.896;2023-04-06T14:34:46;22.83;;;12.40;;
2305;SDS011;1161;51.922;8.896;2023-04-06T14:37:12;25.07;;;11.37;;
2305;SDS011;1161;51.922;8.896;2023-04-06T14:39:39;27.23;;;12.80;;
2305;SDS011;1161;51.922;8.896;2023-04-06T14:42:05;29.03;;;13.70;;
2305;SDS011;1161;51.922;8.896;2023-04-06T14:44:33;31.90;;;13.87;;
2305;SDS011;1161;51.922;8.896;2023-04-06T14:47:01;26.47;;;13.10;;
2305;SDS011;1161;51.922;8.896;2023-04-06T14:49:29;24.83;;;14.33;;
2305;SDS011;1161;51.922;8.896;2023-04-06T14:51:56;28.47;;;12.87;;